sensor_id;sensor_type;location;lat;lon;timestamp;pressure;altitude;pressure_sealevel;temperature;humidity
49377;BME280;35253;34.688;33.040;2023-01-30T00:02:17;100729.72;;;13.89;100.00
49377;BME280;35253;34.688;33.040;2023-01-30T00:04:42;100729.47;;;13.92;100.00
49377;BME280;35253;34.688;33.040;2023-01-30T00:07:08;100724.59;;;13.86;100.00
49377;BME280;35253;34.688;33.040;2023-01-30T00:09:33;100725.84;;;13.93;100.00
49377;BME280;35253;34.688;33.040;2023-01-30T00:11:59;100723.25;;;13.92;100.00
49377;BME280;35253;34.688;33.040;2023-01-30T00:14:24;100719.72;;;13.91;100.00
49377;BME280;35253;34.688;33.040;2023-01-30T00:16:50;100717.94;;;13.79;100.00
49377;BME280;35253;34.688;33.040;2023-01-30T00:19:15;100711.25;;;13.97;100.00
49377;BME280;35253;34.688;33.040;2023-01-30T00:21:41;100711.47;;;13.94;100.00
49377;BME280;35253;34.688;33.040;2023-01-30T00:24:06;100715.53;;;14.00;100.00
49377;BME280;35253;34.688;33.040;2023-01-30T00:26:32;100718.34;;;13.98;100.00
49377;BME280;35253;34.688;33.040;2023-01-30T00:28:57;100716.72;;;13.96;100.00
49377;BME280;35253;34.688;33.040;2023-01-30T00:31:22;100718.47;;;13.84;100.00
49377;BME280;35253;34.688;33.040;2023-01-30T00:33:48;100723.91;;;13.83;100.00
49377;BME280;35253;34.688;33.040;2023-01-30T00:36:13;100720.72;;;13.78;100.00
49377;BME280;35253;34.688;33.040;2023-01-30T00:38:39;100715.59;;;13.62;100.00
49377;BME280;35253;34.688;33.040;2023-01-30T00:41:04;100711.94;;;13.76;100.00
49377;BME280;35253;34.688;33.040;2023-01-30T00:43:30;100705.41;;;13.67;100.00
49377;BME280;35253;34.688;33.040;2023-01-30T00:46:15;100705.31;;;13.56;100.00
49377;BME280;35253;34.688;33.040;2023-01-30T00:49:02;100705.13;;;13.59;100.00
49377;BME280;35253;34.688;33.040;2023-01-30T00:51:27;100698.47;;;13.52;100.00
49377;BME280;35253;34.688;33.040;2023-01-30T00:53:53;100703.19;;;13.48;100.00
49377;BME280;35253;34.688;33.040;2023-01-30T00:56:18;100709.72;;;13.57;100.00
49377;BME280;35253;34.688;33.040;2023-01-30T00:58:44;100711.13;;;13.50;100.00
49377;BME280;35253;34.688;33.040;2023-01-30T01:01:09;100711.97;;;13.50;100.00
49377;BME280;35253;34.688;33.040;2023-01-30T01:03:35;100710.91;;;13.53;100.00
49377;BME280;35253;34.688;33.040;2023-01-30T01:06:00;100708.44;;;13.37;100.00
49377;BME280;35253;34.688;33.040;2023-01-30T01:08:26;100708.75;;;13.45;100.00
49377;BME280;35253;34.688;33.040;2023-01-30T01:10:51;100699.78;;;13.46;100.00
49377;BME280;35253;34.688;33.040;2023-01-30T01:13:16;100693.78;;;13.56;100.00
49377;BME280;35253;34.688;33.040;2023-01-30T01:15:42;100697.97;;;13.47;100.00
49377;BME280;35253;34.688;33.040;2023-01-30T01:18:07;100699.88;;;13.45;100.00
49377;BME280;35253;34.688;33.040;2023-01-30T01:20:33;100698.69;;;13.36;100.00
49377;BME280;35253;34.688;33.040;2023-01-30T01:22:58;100693.88;;;13.29;100.00
49377;BME280;35253;34.688;33.040;2023-01-30T01:25:24;100695.94;;;13.38;100.00
49377;BME280;35253;34.688;33.040;2023-01-30T01:27:50;100690.88;;;13.46;100.00
49377;BME280;35253;34.688;33.040;2023-01-30T01:30:16;100700.09;;;13.42;100.00
49377;BME280;35253;34.688;33.040;2023-01-30T01:32:41;100693.97;;;13.40;100.00
49377;BME280;35253;34.688;33.040;2023-01-30T01:35:07;100692.47;;;13.48;100.00
49377;BME280;35253;34.688;33.040;2023-01-30T01:37:32;100692.91;;;13.55;100.00
49377;BME280;35253;34.688;33.040;2023-01-30T01:39:58;100697.81;;;13.61;100.00
49377;BME280;35253;34.688;33.040;2023-01-30T01:42:42;100686.03;;;13.64;100.00
49377;BME280;35253;34.688;33.040;2023-01-30T01:47:33;100691.41;;;13.64;100.00
49377;BME280;35253;34.688;33.040;2023-01-30T01:49:59;100686.25;;;13.73;100.00
49377;BME280;35253;34.688;33.040;2023-01-30T01:52:24;100687.94;;;13.62;100.00
49377;BME280;35253;34.688;33.040;2023-01-30T01:54:51;100680.53;;;13.65;100.00
49377;BME280;35253;34.688;33.040;2023-01-30T01:57:29;100678.09;;;13.62;100.00
49377;BME280;35253;34.688;33.040;2023-01-30T02:00:01;100678.19;;;13.61;100.00
49377;BME280;35253;34.688;33.040;2023-01-30T02:02:30;100683.22;;;13.65;100.00
49377;BME280;35253;34.688;33.040;2023-01-30T02:04:57;100683.06;;;13.56;100.00
49377;BME280;35253;34.688;33.040;2023-01-30T02:07:27;100680.81;;;13.49;100.00
49377;BME280;35253;34.688;33.040;2023-01-30T02:09:53;100678.53;;;13.56;100.00
49377;BME280;35253;34.688;33.040;2023-01-30T02:12:19;100684.34;;;13.50;100.00
49377;BME280;35253;34.688;33.040;2023-01-30T02:14:44;100685.84;;;13.54;100.00
49377;BME280;35253;34.688;33.040;2023-01-30T02:17:12;100690.75;;;13.60;100.00
49377;BME280;35253;34.688;33.040;2023-01-30T02:22:29;100685.38;;;13.47;100.00
49377;BME280;35253;34.688;33.040;2023-01-30T02:25:03;100687.34;;;13.45;100.00
49377;BME280;35253;34.688;33.040;2023-01-30T02:27:38;100685.72;;;13.43;100.00
49377;BME280;35253;34.688;33.040;2023-01-30T02:38:03;100687.34;;;13.33;100.00
49377;BME280;35253;34.688;33.040;2023-01-30T02:40:38;100692.16;;;13.28;100.00
49377;BME280;35253;34.688;33.040;2023-01-30T02:48:16;100676.75;;;13.19;100.00
49377;BME280;35253;34.688;33.040;2023-01-30T02:50:46;100682.94;;;13.32;100.00
49377;BME280;35253;34.688;33.040;2023-01-30T02:53:14;100673.97;;;13.33;100.00
49377;BME280;35253;34.688;33.040;2023-01-30T02:55:40;100678.13;;;13.37;100.00
49377;BME280;35253;34.688;33.040;2023-01-30T02:58:06;100674.38;;;13.39;100.00
49377;BME280;35253;34.688;33.040;2023-01-30T03:00:55;100671.28;;;13.33;100.00
49377;BME280;35253;34.688;33.040;2023-01-30T03:06:21;100669.97;;;13.26;100.00
49377;BME280;35253;34.688;33.040;2023-01-30T03:11:17;100668.72;;;13.19;100.00
49377;BME280;35253;34.688;33.040;2023-01-30T03:16:34;100665.72;;;13.23;100.00
49377;BME280;35253;34.688;33.040;2023-01-30T03:19:02;100654.78;;;13.14;100.00
49377;BME280;35253;34.688;33.040;2023-01-30T03:21:28;100667.31;;;13.26;100.00
49377;BME280;35253;34.688;33.040;2023-01-30T03:23:54;100670.22;;;13.23;100.00
49377;BME280;35253;34.688;33.040;2023-01-30T03:26:19;100664.31;;;13.18;100.00
49377;BME280;35253;34.688;33.040;2023-01-30T03:28:47;100664.81;;;13.10;100.00
49377;BME280;35253;34.688;33.040;2023-01-30T03:31:13;100663.97;;;13.09;100.00
49377;BME280;35253;34.688;33.040;2023-01-30T03:33:38;100651.75;;;13.05;100.00
49377;BME280;35253;34.688;33.040;2023-01-30T03:36:04;100657.13;;;13.05;100.00
49377;BME280;35253;34.688;33.040;2023-01-30T03:38:30;100655.63;;;13.01;100.00
49377;BME280;35253;34.688;33.040;2023-01-30T03:40:55;100663.34;;;13.06;100.00
49377;BME280;35253;34.688;33.040;2023-01-30T03:43:20;100665.25;;;13.04;100.00
49377;BME280;35253;34.688;33.040;2023-01-30T03:45:46;100666.75;;;12.95;100.00
49377;BME280;35253;34.688;33.040;2023-01-30T03:48:11;100669.72;;;13.03;100.00
49377;BME280;35253;34.688;33.040;2023-01-30T03:50:37;100668.47;;;13.09;100.00
49377;BME280;35253;34.688;33.040;2023-01-30T03:53:02;100670.84;;;13.14;100.00
49377;BME280;35253;34.688;33.040;2023-01-30T03:55:28;100674.94;;;13.19;100.00
49377;BME280;35253;34.688;33.040;2023-01-30T03:57:54;100678.16;;;13.24;100.00
49377;BME280;35253;34.688;33.040;2023-01-30T04:00:20;100679.00;;;13.25;100.00
49377;BME280;35253;34.688;33.040;2023-01-30T04:02:46;100672.56;;;13.27;100.00
49377;BME280;35253;34.688;33.040;2023-01-30T04:05:11;100677.69;;;13.30;100.00
49377;BME280;35253;34.688;33.040;2023-01-30T04:07:36;100680.50;;;13.16;100.00
49377;BME280;35253;34.688;33.040;2023-01-30T04:10:02;100677.91;;;13.27;100.00
49377;BME280;35253;34.688;33.040;2023-01-30T04:12:27;100677.69;;;13.18;100.00
49377;BME280;35253;34.688;33.040;2023-01-30T04:14:53;100676.81;;;13.04;100.00
49377;BME280;35253;34.688;33.040;2023-01-30T04:17:18;100670.50;;;13.05;100.00
49377;BME280;35253;34.688;33.040;2023-01-30T04:19:44;100676.81;;;13.04;100.00
49377;BME280;35253;34.688;33.040;2023-01-30T04:22:09;100674.03;;;13.06;100.00
49377;BME280;35253;34.688;33.040;2023-01-30T04:24:35;100672.16;;;13.21;100.00
49377;BME280;35253;34.688;33.040;2023-01-30T04:27:00;100671.94;;;13.24;100.00
49377;BME280;35253;34.688;33.040;2023-01-30T04:29:25;100673.44;;;13.28;100.00
49377;BME280;35253;34.688;33.040;2023-01-30T04:31:51;100681.88;;;13.22;100.00
49377;BME280;35253;34.688;33.040;2023-01-30T04:34:16;100675.84;;;13.05;100.00
49377;BME280;35253;34.688;33.040;2023-01-30T04:36:42;100676.63;;;13.07;100.00
49377;BME280;35253;34.688;33.040;2023-01-30T04:39:07;100675.09;;;13.03;100.00
49377;BME280;35253;34.688;33.040;2023-01-30T04:41:33;100688.16;;;13.08;100.00
49377;BME280;35253;34.688;33.040;2023-01-30T04:43:58;100677.44;;;13.08;100.00
49377;BME280;35253;34.688;33.040;2023-01-30T04:46:24;100680.38;;;13.18;100.00
49377;BME280;35253;34.688;33.040;2023-01-30T04:48:49;100681.34;;;13.17;100.00
49377;BME280;35253;34.688;33.040;2023-01-30T04:51:14;100678.78;;;13.28;100.00
49377;BME280;35253;34.688;33.040;2023-01-30T04:53:40;100684.53;;;13.34;100.00
49377;BME280;35253;34.688;33.040;2023-01-30T04:56:05;100682.09;;;13.19;100.00
49377;BME280;35253;34.688;33.040;2023-01-30T04:58:31;100685.09;;;13.27;100.00
49377;BME280;35253;34.688;33.040;2023-01-30T05:01:10;100694.22;;;13.24;100.00
49377;BME280;35253;34.688;33.040;2023-01-30T05:03:36;100691.41;;;13.38;100.00
49377;BME280;35253;34.688;33.040;2023-01-30T05:06:01;100686.03;;;13.26;100.00
49377;BME280;35253;34.688;33.040;2023-01-30T05:08:27;100690.34;;;13.41;100.00
49377;BME280;35253;34.688;33.040;2023-01-30T05:10:52;100694.75;;;13.42;100.00
49377;BME280;35253;34.688;33.040;2023-01-30T05:13:18;100690.88;;;13.33;100.00
49377;BME280;35253;34.688;33.040;2023-01-30T05:15:43;100695.69;;;13.53;100.00
49377;BME280;35253;34.688;33.040;2023-01-30T05:18:09;100693.75;;;13.43;100.00
49377;BME280;35253;34.688;33.040;2023-01-30T05:20:34;100695.59;;;13.55;100.00
49377;BME280;35253;34.688;33.040;2023-01-30T05:23:00;100701.47;;;13.60;100.00
49377;BME280;35253;34.688;33.040;2023-01-30T05:25:25;100703.31;;;13.47;100.00
49377;BME280;35253;34.688;33.040;2023-01-30T05:27:50;100707.78;;;13.59;100.00
49377;BME280;35253;34.688;33.040;2023-01-30T05:30:16;100715.50;;;13.64;100.00
49377;BME280;35253;34.688;33.040;2023-01-30T05:32:41;100715.19;;;13.56;100.00
49377;BME280;35253;34.688;33.040;2023-01-30T05:35:07;100713.16;;;13.59;100.00
49377;BME280;35253;34.688;33.040;2023-01-30T05:37:32;100718.69;;;13.56;100.00
49377;BME280;35253;34.688;33.040;2023-01-30T05:39:58;100723.75;;;13.73;100.00
49377;BME280;35253;34.688;33.040;2023-01-30T05:42:23;100726.72;;;13.81;100.00
49377;BME280;35253;34.688;33.040;2023-01-30T05:44:49;100721.78;;;13.88;100.00
49377;BME280;35253;34.688;33.040;2023-01-30T05:47:14;100719.00;;;13.89;100.00
49377;BME280;35253;34.688;33.040;2023-01-30T05:49:40;100727.56;;;13.94;100.00
49377;BME280;35253;34.688;33.040;2023-01-30T05:52:05;100726.44;;;14.10;100.00
49377;BME280;35253;34.688;33.040;2023-01-30T05:54:31;100724.22;;;14.27;100.00
49377;BME280;35253;34.688;33.040;2023-01-30T05:56:56;100722.28;;;14.42;100.00
49377;BME280;35253;34.688;33.040;2023-01-30T05:59:21;100725.06;;;14.64;100.00
49377;BME280;35253;34.688;33.040;2023-01-30T06:01:47;100739.63;;;14.73;100.00
49377;BME280;35253;34.688;33.040;2023-01-30T06:04:13;100749.00;;;15.02;100.00
49377;BME280;35253;34.688;33.040;2023-01-30T06:06:38;100758.50;;;14.95;100.00
49377;BME280;35253;34.688;33.040;2023-01-30T06:09:03;100752.91;;;14.74;100.00
49377;BME280;35253;34.688;33.040;2023-01-30T06:11:29;100734.06;;;14.52;100.00
49377;BME280;35253;34.688;33.040;2023-01-30T06:13:54;100726.97;;;14.51;100.00
49377;BME280;35253;34.688;33.040;2023-01-30T06:16:20;100727.59;;;14.55;100.00
49377;BME280;35253;34.688;33.040;2023-01-30T06:18:45;100738.94;;;14.58;100.00
49377;BME280;35253;34.688;33.040;2023-01-30T06:21:11;100741.91;;;14.66;100.00
49377;BME280;35253;34.688;33.040;2023-01-30T06:23:37;100739.00;;;14.69;100.00
49377;BME280;35253;34.688;33.040;2023-01-30T06:26:03;100743.38;;;14.70;100.00
49377;BME280;35253;34.688;33.040;2023-01-30T06:28:29;100741.22;;;14.75;100.00
49377;BME280;35253;34.688;33.040;2023-01-30T06:30:55;100747.28;;;14.42;100.00
49377;BME280;35253;34.688;33.040;2023-01-30T06:33:20;100752.75;;;14.41;100.00
49377;BME280;35253;34.688;33.040;2023-01-30T06:35:49;100759.41;;;14.35;100.00
49377;BME280;35253;34.688;33.040;2023-01-30T06:38:15;100761.75;;;14.04;100.00
49377;BME280;35253;34.688;33.040;2023-01-30T06:40:43;100772.38;;;13.92;100.00
49377;BME280;35253;34.688;33.040;2023-01-30T06:43:08;100756.41;;;13.78;100.00
49377;BME280;35253;34.688;33.040;2023-01-30T06:45:34;100771.09;;;13.85;100.00
49377;BME280;35253;34.688;33.040;2023-01-30T06:47:59;100772.13;;;13.95;100.00
49377;BME280;35253;34.688;33.040;2023-01-30T06:50:26;100775.66;;;14.09;100.00
49377;BME280;35253;34.688;33.040;2023-01-30T06:52:52;100766.03;;;14.06;100.00
49377;BME280;35253;34.688;33.040;2023-01-30T06:55:19;100780.06;;;14.10;100.00
49377;BME280;35253;34.688;33.040;2023-01-30T06:57:45;100764.59;;;14.13;100.00
49377;BME280;35253;34.688;33.040;2023-01-30T07:00:12;100770.59;;;14.29;100.00
49377;BME280;35253;34.688;33.040;2023-01-30T07:02:39;100773.06;;;14.20;100.00
49377;BME280;35253;34.688;33.040;2023-01-30T07:05:06;100772.78;;;14.12;100.00
49377;BME280;35253;34.688;33.040;2023-01-30T07:07:32;100762.31;;;14.32;100.00
49377;BME280;35253;34.688;33.040;2023-01-30T07:09:58;100758.47;;;14.24;100.00
49377;BME280;35253;34.688;33.040;2023-01-30T07:12:24;100762.28;;;14.45;100.00
49377;BME280;35253;34.688;33.040;2023-01-30T07:14:50;100759.94;;;14.40;100.00
49377;BME280;35253;34.688;33.040;2023-01-30T07:17:16;100763.44;;;14.54;100.00
49377;BME280;35253;34.688;33.040;2023-01-30T07:19:47;100765.63;;;14.36;100.00
49377;BME280;35253;34.688;33.040;2023-01-30T07:22:15;100762.53;;;14.29;100.00
49377;BME280;35253;34.688;33.040;2023-01-30T07:24:41;100764.06;;;14.21;100.00
49377;BME280;35253;34.688;33.040;2023-01-30T07:27:08;100761.72;;;14.16;100.00
49377;BME280;35253;34.688;33.040;2023-01-30T07:29:34;100753.47;;;14.07;100.00
49377;BME280;35253;34.688;33.040;2023-01-30T07:32:01;100749.59;;;14.11;100.00
49377;BME280;35253;34.688;33.040;2023-01-30T07:34:26;100747.22;;;14.19;100.00
49377;BME280;35253;34.688;33.040;2023-01-30T07:36:52;100742.09;;;14.16;100.00
49377;BME280;35253;34.688;33.040;2023-01-30T07:39:17;100735.44;;;14.09;100.00
49377;BME280;35253;34.688;33.040;2023-01-30T07:41:43;100736.50;;;14.19;100.00
49377;BME280;35253;34.688;33.040;2023-01-30T07:44:08;100736.50;;;14.19;100.00
49377;BME280;35253;34.688;33.040;2023-01-30T07:46:34;100742.47;;;14.22;100.00
49377;BME280;35253;34.688;33.040;2023-01-30T07:49:01;100733.91;;;14.30;100.00
49377;BME280;35253;34.688;33.040;2023-01-30T07:51:26;100730.22;;;14.31;100.00
49377;BME280;35253;34.688;33.040;2023-01-30T07:53:52;100726.81;;;14.29;100.00
49377;BME280;35253;34.688;33.040;2023-01-30T07:56:18;100732.19;;;14.29;100.00
49377;BME280;35253;34.688;33.040;2023-01-30T07:58:46;100728.09;;;14.36;100.00
49377;BME280;35253;34.688;33.040;2023-01-30T08:01:12;100721.81;;;14.48;100.00
49377;BME280;35253;34.688;33.040;2023-01-30T08:03:37;100721.09;;;14.70;100.00
49377;BME280;35253;34.688;33.040;2023-01-30T08:06:02;100731.22;;;14.77;100.00
49377;BME280;35253;34.688;33.040;2023-01-30T08:08:28;100733.50;;;14.95;100.00
49377;BME280;35253;34.688;33.040;2023-01-30T08:10:53;100724.72;;;15.04;100.00
49377;BME280;35253;34.688;33.040;2023-01-30T08:13:19;100728.03;;;15.18;100.00
49377;BME280;35253;34.688;33.040;2023-01-30T08:15:45;100723.56;;;15.30;100.00
49377;BME280;35253;34.688;33.040;2023-01-30T08:18:11;100717.72;;;15.47;100.00
49377;BME280;35253;34.688;33.040;2023-01-30T08:20:36;100715.81;;;15.60;100.00
49377;BME280;35253;34.688;33.040;2023-01-30T08:23:02;100721.81;;;15.75;100.00
49377;BME280;35253;34.688;33.040;2023-01-30T08:25:28;100722.19;;;15.70;100.00
49377;BME280;35253;34.688;33.040;2023-01-30T08:27:53;100728.53;;;15.69;100.00
49377;BME280;35253;34.688;33.040;2023-01-30T08:30:19;100740.72;;;15.62;100.00
49377;BME280;35253;34.688;33.040;2023-01-30T08:32:45;100763.69;;;15.55;100.00
49377;BME280;35253;34.688;33.040;2023-01-30T08:35:11;100769.78;;;15.11;100.00
49377;BME280;35253;34.688;33.040;2023-01-30T08:37:38;100761.63;;;14.78;100.00
49377;BME280;35253;34.688;33.040;2023-01-30T08:40:03;100763.72;;;14.62;100.00
49377;BME280;35253;34.688;33.040;2023-01-30T08:42:29;100761.56;;;14.43;100.00
49377;BME280;35253;34.688;33.040;2023-01-30T08:44:54;100750.16;;;14.52;100.00
49377;BME280;35253;34.688;33.040;2023-01-30T08:47:20;100746.47;;;14.53;100.00
49377;BME280;35253;34.688;33.040;2023-01-30T08:49:51;100748.63;;;14.48;100.00
49377;BME280;35253;34.688;33.040;2023-01-30T08:52:17;100737.06;;;14.48;100.00
49377;BME280;35253;34.688;33.040;2023-01-30T08:54:42;100735.81;;;14.28;100.00
49377;BME280;35253;34.688;33.040;2023-01-30T08:57:08;100733.44;;;14.36;100.00
49377;BME280;35253;34.688;33.040;2023-01-30T08:59:34;100736.56;;;14.30;100.00
49377;BME280;35253;34.688;33.040;2023-01-30T09:02:00;100733.03;;;14.29;100.00
49377;BME280;35253;34.688;33.040;2023-01-30T09:04:27;100736.50;;;14.19;100.00
49377;BME280;35253;34.688;33.040;2023-01-30T09:06:54;100743.03;;;14.15;100.00
49377;BME280;35253;34.688;33.040;2023-01-30T09:09:20;100741.47;;;14.12;100.00
49377;BME280;35253;34.688;33.040;2023-01-30T09:11:45;100740.69;;;14.10;100.00
49377;BME280;35253;34.688;33.040;2023-01-30T09:14:12;100741.31;;;14.14;100.00
49377;BME280;35253;34.688;33.040;2023-01-30T09:16:38;100747.88;;;14.10;100.00
49377;BME280;35253;34.688;33.040;2023-01-30T09:19:16;100764.00;;;13.97;100.00
49377;BME280;35253;34.688;33.040;2023-01-30T09:21:41;100759.75;;;13.82;100.00
49377;BME280;35253;34.688;33.040;2023-01-30T09:24:08;100743.91;;;13.41;100.00
49377;BME280;35253;34.688;33.040;2023-01-30T09:26:34;100745.09;;;13.37;100.00
49377;BME280;35253;34.688;33.040;2023-01-30T09:28:59;100726.97;;;13.40;100.00
49377;BME280;35253;34.688;33.040;2023-01-30T09:31:25;100733.28;;;13.39;100.00
49377;BME280;35253;34.688;33.040;2023-01-30T09:33:50;100729.34;;;13.32;100.00
49377;BME280;35253;34.688;33.040;2023-01-30T09:36:16;100729.75;;;13.39;100.00
49377;BME280;35253;34.688;33.040;2023-01-30T09:38:41;100736.16;;;13.74;100.00
49377;BME280;35253;34.688;33.040;2023-01-30T09:43:46;100707.88;;;13.70;100.00
49377;BME280;35253;34.688;33.040;2023-01-30T09:46:29;100693.72;;;14.05;100.00
49377;BME280;35253;34.688;33.040;2023-01-30T09:51:36;100681.47;;;14.26;100.00
49377;BME280;35253;34.688;33.040;2023-01-30T09:56:35;100673.66;;;14.81;100.00
49377;BME280;35253;34.688;33.040;2023-01-30T09:59:02;100676.59;;;14.78;100.00
49377;BME280;35253;34.688;33.040;2023-01-30T10:04:03;100659.03;;;14.97;100.00
49377;BME280;35253;34.688;33.040;2023-01-30T10:06:31;100655.78;;;15.15;100.00
49377;BME280;35253;34.688;33.040;2023-01-30T10:09:02;100648.09;;;15.11;100.00
49377;BME280;35253;34.688;33.040;2023-01-30T10:14:10;100634.78;;;15.20;100.00
49377;BME280;35253;34.688;33.040;2023-01-30T10:16:43;100627.84;;;15.29;100.00
49377;BME280;35253;34.688;33.040;2023-01-30T10:21:50;100626.09;;;14.95;100.00
49377;BME280;35253;34.688;33.040;2023-01-30T10:26:45;100622.59;;;14.59;100.00
49377;BME280;35253;34.688;33.040;2023-01-30T10:31:44;100624.59;;;14.68;100.00
49377;BME280;35253;34.688;33.040;2023-01-30T10:34:13;100614.66;;;14.58;100.00
49377;BME280;35253;34.688;33.040;2023-01-30T10:36:47;100610.91;;;14.71;100.00
49377;BME280;35253;34.688;33.040;2023-01-30T10:39:21;100602.75;;;14.73;100.00
49377;BME280;35253;34.688;33.040;2023-01-30T10:41:51;100597.16;;;14.76;100.00
49377;BME280;35253;34.688;33.040;2023-01-30T10:44:19;100602.66;;;14.85;100.00
49377;BME280;35253;34.688;33.040;2023-01-30T10:47:03;100605.56;;;14.71;100.00
49377;BME280;35253;34.688;33.040;2023-01-30T10:49:49;100611.63;;;14.62;100.00
49377;BME280;35253;34.688;33.040;2023-01-30T10:57:15;100608.31;;;14.35;100.00
49377;BME280;35253;34.688;33.040;2023-01-30T10:59:53;100619.53;;;14.29;100.00
49377;BME280;35253;34.688;33.040;2023-01-30T11:04:48;100612.59;;;14.03;100.00
49377;BME280;35253;34.688;33.040;2023-01-30T11:07:16;100606.31;;;14.15;100.00
49377;BME280;35253;34.688;33.040;2023-01-30T11:09:45;100590.72;;;14.20;100.00
49377;BME280;35253;34.688;33.040;2023-01-30T11:12:11;100594.66;;;14.27;100.00
49377;BME280;35253;34.688;33.040;2023-01-30T11:17:18;100595.69;;;14.37;100.00
49377;BME280;35253;34.688;33.040;2023-01-30T11:19:44;100595.34;;;14.41;100.00
49377;BME280;35253;34.688;33.040;2023-01-30T11:22:12;100576.94;;;14.48;100.00
49377;BME280;35253;34.688;33.040;2023-01-30T11:24:40;100577.94;;;14.47;100.00
49377;BME280;35253;34.688;33.040;2023-01-30T11:29:36;100565.91;;;14.64;100.00
49377;BME280;35253;34.688;33.040;2023-01-30T11:32:03;100566.28;;;14.81;100.00
49377;BME280;35253;34.688;33.040;2023-01-30T11:34:29;100555.94;;;15.10;100.00
49377;BME280;35253;34.688;33.040;2023-01-30T11:37:14;100560.19;;;15.02;100.00
49377;BME280;35253;34.688;33.040;2023-01-30T11:39:56;100555.81;;;15.12;100.00
49377;BME280;35253;34.688;33.040;2023-01-30T11:42:29;100549.59;;;15.22;100.00
49377;BME280;35253;34.688;33.040;2023-01-30T11:44:59;100530.13;;;15.41;100.00
49377;BME280;35253;34.688;33.040;2023-01-30T11:47:27;100530.72;;;15.45;100.00
49377;BME280;35253;34.688;33.040;2023-01-30T11:49:54;100540.53;;;15.89;100.00
49377;BME280;35253;34.688;33.040;2023-01-30T11:52:35;100532.44;;;16.00;100.00
49377;BME280;35253;34.688;33.040;2023-01-30T11:55:02;100533.06;;;15.60;100.00
49377;BME280;35253;34.688;33.040;2023-01-30T11:57:50;100521.47;;;15.60;100.00
49377;BME280;35253;34.688;33.040;2023-01-30T12:00:22;100518.13;;;15.78;100.00
49377;BME280;35253;34.688;33.040;2023-01-30T12:02:49;100509.38;;;15.32;100.00
49377;BME280;35253;34.688;33.040;2023-01-30T12:08:15;100511.59;;;15.38;100.00
49377;BME280;35253;34.688;33.040;2023-01-30T12:10:57;100513.28;;;15.61;100.00
49377;BME280;35253;34.688;33.040;2023-01-30T12:13:38;100513.16;;;15.41;100.00
49377;BME280;35253;34.688;33.040;2023-01-30T12:16:21;100521.84;;;15.33;100.00
49377;BME280;35253;34.688;33.040;2023-01-30T12:21:25;100507.81;;;15.29;100.00
49377;BME280;35253;34.688;33.040;2023-01-30T12:31:49;100523.09;;;15.07;100.00
49377;BME280;35253;34.688;33.040;2023-01-30T12:34:18;100521.41;;;14.95;100.00
49377;BME280;35253;34.688;33.040;2023-01-30T12:49:41;100530.38;;;14.49;100.00
49377;BME280;35253;34.688;33.040;2023-01-30T12:52:19;100528.19;;;14.43;100.00
49377;BME280;35253;34.688;33.040;2023-01-30T12:54:51;100539.53;;;14.23;100.00
49377;BME280;35253;34.688;33.040;2023-01-30T13:05:28;100492.38;;;13.14;100.00
49377;BME280;35253;34.688;33.040;2023-01-30T13:13:18;100492.06;;;13.66;100.00
49377;BME280;35253;34.688;33.040;2023-01-30T13:15:52;100489.88;;;13.71;100.00
49377;BME280;35253;34.688;33.040;2023-01-30T13:20:50;100488.75;;;13.86;100.00
49377;BME280;35253;34.688;33.040;2023-01-30T13:26:02;100492.59;;;14.17;100.00
49377;BME280;35253;34.688;33.040;2023-01-30T13:28:40;100491.53;;;14.20;100.00
49377;BME280;35253;34.688;33.040;2023-01-30T13:31:08;100481.13;;;14.50;100.00
49377;BME280;35253;34.688;33.040;2023-01-30T13:33:36;100485.25;;;14.87;100.00
49377;BME280;35253;34.688;33.040;2023-01-30T13:38:58;100471.34;;;15.16;100.00
49377;BME280;35253;34.688;33.040;2023-01-30T13:41:27;100474.50;;;15.21;100.00
49377;BME280;35253;34.688;33.040;2023-01-30T13:43:54;100478.59;;;15.36;100.00
49377;BME280;35253;34.688;33.040;2023-01-30T13:46:25;100473.66;;;15.20;100.00
49377;BME280;35253;34.688;33.040;2023-01-30T14:07:08;100462.59;;;14.69;100.00
49377;BME280;35253;34.688;33.040;2023-01-30T14:09:41;100468.09;;;14.57;100.00
49377;BME280;35253;34.688;33.040;2023-01-30T14:12:18;100465.03;;;14.39;100.00
49377;BME280;35253;34.688;33.040;2023-01-30T14:14:59;100466.72;;;14.05;100.00
49377;BME280;35253;34.688;33.040;2023-01-30T14:17:26;100468.84;;;14.13;100.00
49377;BME280;35253;34.688;33.040;2023-01-30T14:19:56;100474.41;;;14.10;100.00
49377;BME280;35253;34.688;33.040;2023-01-30T14:27:32;100457.38;;;14.22;100.00
49377;BME280;35253;34.688;33.040;2023-01-30T14:29:58;100455.97;;;14.40;100.00
49377;BME280;35253;34.688;33.040;2023-01-30T14:40:02;100462.13;;;14.18;100.00
49377;BME280;35253;34.688;33.040;2023-01-30T14:42:30;100462.88;;;14.20;100.00
49377;BME280;35253;34.688;33.040;2023-01-30T14:45:03;100464.56;;;14.10;100.00
49377;BME280;35253;34.688;33.040;2023-01-30T14:47:30;100458.84;;;14.15;100.00
49377;BME280;35253;34.688;33.040;2023-01-30T14:49:57;100464.72;;;14.20;100.00
49377;BME280;35253;34.688;33.040;2023-01-30T14:52:29;100463.34;;;14.14;100.00